Time;durP1;ratioP1;P1;durP2;ratioP2;P2;SDS_P1;SDS_P2;PMS_P1;PMS_P2;Temp;Humidity;BMP_temperature;BMP_pressure;BME280_temperature;BME280_humidity;BME280_pressure;Samples;Min_cycle;Max_cycle;Signal;HPM_P1;HPM_P2
2021/10/12 00:01:44;;;;;;;0.90;0.90;;;12.10;99.90;;;;;;6187934;23;20604;-90
2021/10/12 00:04:10;;;;;;;3.23;1.07;;;12.10;99.90;;;;;;6187841;23;20197;-90
2021/10/12 00:06:36;;;;;;;5.73;1.10;;;12.10;99.90;;;;;;6187537;23;20185;-91
2021/10/12 00:09:02;;;;;;;1.90;0.50;;;12.10;99.90;;;;;;6214184;23;20163;-91
2021/10/12 00:11:28;;;;;;;6.90;1.00;;;12.10;99.90;;;;;;6212751;23;20256;-90
2021/10/12 00:13:54;;;;;;;3.70;0.90;;;12.20;99.90;;;;;;6187730;23;20232;-91
2021/10/12 00:16:22;;;;;;;6.23;0.60;;;12.20;99.90;;;;;;6237775;22;20295;-90
2021/10/12 00:18:48;;;;;;;0.53;0.53;;;12.20;99.90;;;;;;6213820;23;20634;-88
2021/10/12 00:21:14;;;;;;;9.73;0.53;;;12.20;99.90;;;;;;6213365;22;20207;-91
2021/10/12 00:23:40;;;;;;;3.17;0.70;;;12.20;99.90;;;;;;6213451;23;20172;-91
2021/10/12 00:26:06;;;;;;;6.70;1.17;;;12.20;99.90;;;;;;6212814;23;20200;-90
2021/10/12 00:28:32;;;;;;;1.20;1.00;;;12.20;99.90;;;;;;6212985;23;20658;-90
2021/10/12 00:30:59;;;;;;;1.60;0.83;;;12.20;99.90;;;;;;6212829;23;20204;-90
2021/10/12 00:33:25;;;;;;;1.03;0.87;;;12.20;99.90;;;;;;6238056;22;20514;-90
2021/10/12 00:35:51;;;;;;;1.77;0.80;;;12.20;99.90;;;;;;6187995;23;20158;-90
2021/10/12 00:38:17;;;;;;;0.67;0.67;;;12.20;99.90;;;;;;6237692;22;20204;-90
2021/10/12 00:40:44;;;;;;;4.63;0.87;;;12.20;99.90;;;;;;6187369;23;20308;-90
2021/10/12 00:43:10;;;;;;;5.67;1.00;;;12.10;99.90;;;;;;6212164;23;20439;-89
2021/10/12 00:45:37;;;;;;;1.57;1.20;;;12.10;99.90;;;;;;6238082;22;20205;-88
2021/10/12 00:48:07;;;;;;;0.63;0.63;;;12.10;99.90;;;;;;6213380;23;20201;-89
2021/10/12 00:50:35;;;;;;;0.20;0.20;;;12.10;99.90;;;;;;6212671;23;20900;-90
2021/10/12 00:53:02;;;;;;;2.77;0.67;;;12.10;99.90;;;;;;6212566;23;20291;-89
2021/10/12 00:55:28;;;;;;;2.73;0.83;;;12.00;99.90;;;;;;6237340;22;20635;-89
2021/10/12 00:57:54;;;;;;;1.00;0.60;;;12.00;99.90;;;;;;6237929;22;20661;-90
2021/10/12 01:00:21;;;;;;;3.47;0.67;;;12.10;99.90;;;;;;6212754;22;20154;-89
2021/10/12 01:02:47;;;;;;;0.93;0.40;;;12.10;99.90;;;;;;6213476;23;20161;-90
2021/10/12 01:05:12;;;;;;;4.03;0.33;;;12.10;99.90;;;;;;6187234;23;20204;-90
2021/10/12 01:07:38;;;;;;;1.60;0.57;;;12.10;99.90;;;;;;6187902;23;20201;-90
2021/10/12 01:10:06;;;;;;;2.77;0.53;;;12.20;99.90;;;;;;6187666;23;20193;-89
2021/10/12 01:12:32;;;;;;;0.60;0.60;;;12.20;99.90;;;;;;6238662;22;20654;-90
2021/10/12 01:14:58;;;;;;;0.70;0.50;;;12.20;99.90;;;;;;6213394;23;20955;-90
2021/10/12 01:17:25;;;;;;;0.33;0.33;;;12.20;99.90;;;;;;6237705;22;20247;-90
2021/10/12 01:19:51;;;;;;;4.00;0.77;;;12.30;99.90;;;;;;6238284;22;20323;-90
2021/10/12 01:22:17;;;;;;;2.00;0.70;;;12.30;99.90;;;;;;6212944;23;20189;-89
2021/10/12 01:24:43;;;;;;;2.10;0.63;;;12.30;99.90;;;;;;6238466;22;20195;-89
2021/10/12 01:27:09;;;;;;;5.47;0.60;;;12.30;99.90;;;;;;6188096;23;20236;-89
2021/10/12 01:29:35;;;;;;;2.57;1.00;;;12.30;99.90;;;;;;6212667;23;20204;-90
2021/10/12 01:32:01;;;;;;;3.37;0.53;;;12.40;99.90;;;;;;6188008;23;20193;-90
2021/10/12 01:34:27;;;;;;;2.00;0.63;;;12.40;99.90;;;;;;6212191;23;20216;-89
2021/10/12 01:36:53;;;;;;;1.73;0.67;;;12.40;99.90;;;;;;6212537;23;20197;-91
2021/10/12 01:39:20;;;;;;;2.30;0.57;;;12.40;99.90;;;;;;6187665;22;20237;-91
2021/10/12 01:41:46;;;;;;;0.90;0.70;;;12.40;99.90;;;;;;6188121;22;20165;-90
2021/10/12 01:44:14;;;;;;;1.37;0.50;;;12.40;99.90;;;;;;6212123;23;20643;-90
2021/10/12 01:46:41;;;;;;;4.10;0.53;;;12.50;99.90;;;;;;6237976;22;20197;-90
2021/10/12 01:49:07;;;;;;;5.00;0.60;;;12.50;99.90;;;;;;6237767;22;20203;-91
2021/10/12 01:51:35;;;;;;;0.70;0.40;;;12.50;99.90;;;;;;6213471;22;20622;-91
2021/10/12 01:54:01;;;;;;;1.57;0.23;;;12.50;99.90;;;;;;6190352;23;20189;-91
2021/10/12 01:56:30;;;;;;;4.10;0.60;;;12.50;99.90;;;;;;6240077;22;20371;-92
2021/10/12 01:58:56;;;;;;;2.10;0.30;;;12.50;99.90;;;;;;6214612;23;20584;-89
2021/10/12 02:01:24;;;;;;;1.70;1.20;;;12.60;99.90;;;;;;6189186;23;20209;-90
2021/10/12 02:03:50;;;;;;;4.80;0.60;;;12.60;99.90;;;;;;6239469;22;20193;-90
2021/10/12 02:06:16;;;;;;;5.50;0.80;;;12.60;99.90;;;;;;6214771;22;20169;-89
2021/10/12 02:08:43;;;;;;;6.93;1.53;;;12.60;99.90;;;;;;6190424;23;20154;-89
2021/10/12 02:11:09;;;;;;;0.80;0.80;;;12.60;99.90;;;;;;6189291;23;20193;-89
2021/10/12 02:13:35;;;;;;;1.63;0.37;;;12.70;99.90;;;;;;6214760;23;20229;-89
2021/10/12 02:16:01;;;;;;;1.13;0.60;;;12.70;99.90;;;;;;6188989;23;20212;-90
2021/10/12 02:18:27;;;;;;;0.20;0.20;;;12.60;99.90;;;;;;6214350;22;20244;-89
2021/10/12 02:20:53;;;;;;;0.83;0.40;;;12.60;99.90;;;;;;6239598;23;20169;-89
2021/10/12 02:23:19;;;;;;;0.13;0.07;;;12.60;99.90;;;;;;6238968;22;20201;-89
2021/10/12 02:25:45;;;;;;;3.57;0.40;;;12.60;99.90;;;;;;6189077;23;20344;-89
2021/10/12 02:28:11;;;;;;;2.97;0.33;;;12.70;99.90;;;;;;6214348;23;20889;-89
2021/10/12 02:30:37;;;;;;;3.80;0.20;;;12.70;99.90;;;;;;6214263;23;20304;-89
2021/10/12 02:33:04;;;;;;;0.20;0.20;;;12.70;99.90;;;;;;6189877;23;20185;-88
2021/10/12 02:35:30;;;;;;;0.90;0.90;;;12.70;99.90;;;;;;6238589;22;20280;-88
2021/10/12 02:37:56;;;;;;;3.77;0.77;;;12.60;99.90;;;;;;6238926;22;20197;-89
2021/10/12 02:40:22;;;;;;;0.00;0.00;;;12.60;99.90;;;;;;6213637;23;20185;-89
2021/10/12 02:42:48;;;;;;;1.60;0.20;;;12.60;99.90;;;;;;6238854;22;20662;-90
2021/10/12 02:45:14;;;;;;;5.37;0.87;;;12.50;99.90;;;;;;6239107;22;20323;-90
2021/10/12 02:47:40;;;;;;;6.20;0.50;;;12.50;99.90;;;;;;6214859;23;20189;-90
2021/10/12 02:50:07;;;;;;;0.10;0.10;;;12.50;99.90;;;;;;6188651;23;20194;-89
2021/10/12 02:52:33;;;;;;;1.67;0.47;;;12.40;99.90;;;;;;6213949;23;20205;-90
2021/10/12 02:54:59;;;;;;;4.90;0.83;;;12.40;99.90;;;;;;6238858;22;20196;-90
2021/10/12 02:57:25;;;;;;;2.23;0.50;;;12.40;99.90;;;;;;6238845;22;20189;-89
2021/10/12 02:59:51;;;;;;;2.57;1.23;;;12.50;99.90;;;;;;6214813;23;20165;-89
2021/10/12 03:02:17;;;;;;;8.23;0.57;;;12.60;99.90;;;;;;6213453;23;20193;-89
2021/10/12 03:04:43;;;;;;;2.17;0.77;;;12.50;99.90;;;;;;6213376;23;20193;-89
2021/10/12 03:07:09;;;;;;;0.57;0.53;;;12.40;99.90;;;;;;6188337;23;20309;-89
2021/10/12 03:09:35;;;;;;;3.33;0.60;;;12.40;99.90;;;;;;6213494;22;20292;-89
2021/10/12 03:12:00;;;;;;;0.40;0.40;;;12.30;99.90;;;;;;6214496;23;20168;-88
2021/10/12 03:14:26;;;;;;;0.10;0.10;;;12.40;99.90;;;;;;6213524;23;20605;-90
2021/10/12 03:16:52;;;;;;;0.97;0.30;;;12.40;99.90;;;;;;6213849;23;20280;-90
2021/10/12 03:19:18;;;;;;;4.63;1.30;;;12.40;99.90;;;;;;6213448;23;20247;-90
2021/10/12 03:21:53;;;;;;;1.90;0.57;;;12.50;99.90;;;;;;6188746;23;20193;-91
2021/10/12 03:24:19;;;;;;;1.80;0.63;;;12.50;99.90;;;;;;6215160;22;20187;-88
2021/10/12 03:26:45;;;;;;;4.00;1.17;;;12.50;99.90;;;;;;6214611;23;20163;-90
2021/10/12 03:29:11;;;;;;;5.50;1.30;;;12.50;99.90;;;;;;6189253;23;20197;-90
2021/10/12 03:31:36;;;;;;;1.00;0.67;;;12.50;99.90;;;;;;6188752;23;20201;-90
2021/10/12 03:34:02;;;;;;;1.27;0.40;;;12.40;99.90;;;;;;6214059;23;20276;-90
2021/10/12 03:36:28;;;;;;;6.37;0.53;;;12.30;99.90;;;;;;6213226;22;20165;-89
2021/10/12 03:38:54;;;;;;;0.40;0.40;;;12.20;99.90;;;;;;6214485;23;20215;-89
2021/10/12 03:41:20;;;;;;;2.83;1.60;;;12.20;99.90;;;;;;6213509;23;20208;-90
2021/10/12 03:43:46;;;;;;;0.30;0.30;;;12.30;99.90;;;;;;6187830;23;20213;-89
2021/10/12 03:46:12;;;;;;;0.30;0.30;;;12.30;99.90;;;;;;6213232;23;20216;-90
2021/10/12 03:48:38;;;;;;;1.13;0.93;;;12.40;99.90;;;;;;6188768;23;20189;-89
2021/10/12 03:51:07;;;;;;;4.20;1.07;;;12.40;99.90;;;;;;6214536;23;20161;-90
2021/10/12 03:53:34;;;;;;;3.53;0.80;;;12.40;99.90;;;;;;6238303;22;20205;-89
2021/10/12 03:56:00;;;;;;;7.10;1.03;;;12.40;99.90;;;;;;6239022;22;20567;-90
2021/10/12 03:58:26;;;;;;;0.60;0.60;;;12.40;99.90;;;;;;6213416;23;20197;-89
2021/10/12 04:00:52;;;;;;;0.20;0.20;;;12.40;99.90;;;;;;6213847;23;20193;-89
2021/10/12 04:03:18;;;;;;;3.97;0.60;;;12.40;99.90;;;;;;6189088;22;20601;-90
2021/10/12 04:05:44;;;;;;;1.33;0.93;;;12.40;99.90;;;;;;6214676;23;20162;-88
2021/10/12 04:08:10;;;;;;;0.10;0.10;;;12.40;99.90;;;;;;6188422;23;20673;-89
2021/10/12 04:10:36;;;;;;;0.37;0.37;;;12.30;99.90;;;;;;6238449;22;20212;-89
2021/10/12 04:13:03;;;;;;;0.10;0.10;;;12.50;99.90;;;;;;6213458;23;20201;-89
2021/10/12 04:15:29;;;;;;;0.87;0.30;;;12.60;99.90;;;;;;6213383;22;20239;-89
2021/10/12 04:17:55;;;;;;;0.10;0.10;;;12.60;99.90;;;;;;6214427;23;20162;-88
2021/10/12 04:20:24;;;;;;;4.60;0.60;;;12.70;99.90;;;;;;6188069;23;20312;-88
2021/10/12 04:22:51;;;;;;;2.03;0.50;;;12.80;99.90;;;;;;6238719;22;20231;-88
2021/10/12 04:25:17;;;;;;;0.20;0.20;;;12.90;99.90;;;;;;6188293;23;20896;-88
2021/10/12 04:27:43;;;;;;;0.30;0.30;;;12.80;99.90;;;;;;6188001;23;20228;-89
2021/10/12 04:30:10;;;;;;;0.13;0.10;;;12.70;99.90;;;;;;6189273;23;20157;-89
2021/10/12 04:32:35;;;;;;;0.50;0.50;;;12.70;99.90;;;;;;6212756;23;20247;-89
2021/10/12 04:35:01;;;;;;;5.40;0.20;;;12.70;99.90;;;;;;6212488;23;20642;-88
2021/10/12 04:37:27;;;;;;;0.57;0.17;;;12.60;99.90;;;;;;6187427;23;20200;-88
2021/10/12 04:39:53;;;;;;;0.40;0.40;;;12.60;99.90;;;;;;6237475;22;20267;-89
2021/10/12 04:42:19;;;;;;;0.10;0.10;;;12.60;99.90;;;;;;6237833;22;20185;-88
2021/10/12 04:44:49;;;;;;;5.73;0.37;;;12.60;99.90;;;;;;6212742;23;20230;-88
2021/10/12 04:47:16;;;;;;;1.50;1.40;;;12.60;99.90;;;;;;6188620;23;20207;-88
2021/10/12 04:49:43;;;;;;;0.30;0.20;;;12.50;99.90;;;;;;6234891;22;20224;-88
2021/10/12 04:52:08;;;;;;;0.93;0.93;;;12.40;99.90;;;;;;6237291;22;20642;-89
2021/10/12 04:54:34;;;;;;;4.87;0.27;;;12.30;99.90;;;;;;6187793;22;20211;-93
2021/10/12 04:57:00;;;;;;;2.70;0.60;;;12.30;99.90;;;;;;6188774;23;20249;-89
2021/10/12 04:59:26;;;;;;;0.87;0.50;;;12.30;99.90;;;;;;6212513;22;20200;-88
2021/10/12 05:01:52;;;;;;;1.90;0.47;;;12.20;99.90;;;;;;6238202;22;20197;-88
2021/10/12 05:04:19;;;;;;;3.77;0.77;;;12.20;99.90;;;;;;6187235;23;20659;-89
2021/10/12 05:06:44;;;;;;;0.73;0.73;;;12.30;99.90;;;;;;6213252;23;20197;-88
2021/10/12 05:09:10;;;;;;;0.20;0.20;;;12.30;99.90;;;;;;6213764;23;20243;-88
2021/10/12 05:11:36;;;;;;;5.30;0.37;;;12.20;99.90;;;;;;6237733;22;20511;-88
2021/10/12 05:14:02;;;;;;;0.07;0.07;;;12.20;99.90;;;;;;6212462;23;20663;-88
2021/10/12 05:16:29;;;;;;;0.17;0.17;;;12.20;99.90;;;;;;6212347;23;20204;-88
2021/10/12 05:18:58;;;;;;;1.30;0.20;;;12.30;99.90;;;;;;6188561;23;20189;-88
2021/10/12 05:21:24;;;;;;;0.73;0.73;;;12.30;99.90;;;;;;6189027;22;20154;-89
2021/10/12 05:23:50;;;;;;;4.20;0.67;;;12.30;99.90;;;;;;6238667;23;20161;-88
2021/10/12 05:26:16;;;;;;;0.13;0.13;;;12.40;99.90;;;;;;6187141;23;20201;-88
2021/10/12 05:28:42;;;;;;;0.70;0.70;;;12.30;99.90;;;;;;6187078;23;20204;-89
2021/10/12 05:31:08;;;;;;;0.50;0.37;;;12.40;99.90;;;;;;6212500;23;20189;-88
2021/10/12 05:33:34;;;;;;;0.23;0.10;;;12.40;99.90;;;;;;6212276;22;20204;-88
2021/10/12 05:36:03;;;;;;;4.43;0.50;;;12.40;99.90;;;;;;6188117;23;20153;-89
2021/10/12 05:38:29;;;;;;;0.00;0.00;;;12.40;99.90;;;;;;6237131;22;20250;-88
2021/10/12 05:40:55;;;;;;;0.30;0.30;;;12.40;99.90;;;;;;6237582;22;20193;-88
2021/10/12 05:43:21;;;;;;;0.10;0.10;;;12.40;99.90;;;;;;6235592;22;20693;-90
2021/10/12 05:45:49;;;;;;;2.57;1.37;;;12.30;99.90;;;;;;6238596;22;20193;-87
2021/10/12 05:48:16;;;;;;;6.43;0.60;;;12.30;99.90;;;;;;6212480;22;20157;-88
2021/10/12 05:50:43;;;;;;;0.63;0.27;;;12.30;99.90;;;;;;6212872;23;20161;-89
2021/10/12 05:58:14;;;;;;;3.93;0.93;;;12.30;99.90;;;;;;6237481;22;20189;-88
2021/10/12 06:00:40;;;;;;;5.23;0.93;;;12.20;99.90;;;;;;6212802;23;20189;-88
2021/10/12 06:03:06;;;;;;;2.87;0.43;;;12.20;99.90;;;;;;6213192;23;20197;-88
2021/10/12 06:05:34;;;;;;;0.20;0.20;;;12.20;99.90;;;;;;6212157;23;20197;-88
2021/10/12 06:07:59;;;;;;;0.80;0.80;;;12.10;99.90;;;;;;6237273;22;20247;-87
2021/10/12 06:10:25;;;;;;;1.00;0.83;;;12.20;99.90;;;;;;6211862;23;20208;-88
2021/10/12 06:12:51;;;;;;;3.07;0.97;;;12.20;99.90;;;;;;6213007;23;20638;-90
2021/10/12 06:15:17;;;;;;;0.30;0.30;;;12.20;99.90;;;;;;6187302;22;20960;-89
2021/10/12 06:17:43;;;;;;;0.30;0.20;;;12.20;99.90;;;;;;6212737;23;20161;-87
2021/10/12 06:20:09;;;;;;;1.87;0.40;;;12.30;99.90;;;;;;6187025;23;20197;-89
2021/10/12 06:22:35;;;;;;;0.37;0.37;;;12.30;99.90;;;;;;6186662;23;20198;-88
2021/10/12 06:25:00;;;;;;;0.40;0.30;;;12.20;99.90;;;;;;6212181;23;20190;-90
2021/10/12 06:27:26;;;;;;;4.27;0.20;;;12.10;99.90;;;;;;6186780;22;20585;-88
2021/10/12 06:29:52;;;;;;;2.47;0.77;;;12.00;99.90;;;;;;6188423;23;20200;-89
2021/10/12 06:32:18;;;;;;;0.10;0.10;;;12.00;99.90;;;;;;6212400;23;20193;-89
2021/10/12 06:34:43;;;;;;;0.33;0.20;;;11.90;99.90;;;;;;6212116;23;20296;-90
2021/10/12 06:37:09;;;;;;;1.23;0.23;;;11.90;99.90;;;;;;6187631;23;20197;-89
2021/10/12 06:39:35;;;;;;;0.13;0.13;;;11.90;99.90;;;;;;6213263;22;20268;-89
2021/10/12 06:42:02;;;;;;;0.10;0.10;;;11.90;99.90;;;;;;6189765;23;20158;-89
2021/10/12 06:44:28;;;;;;;1.03;0.63;;;12.00;99.90;;;;;;6214041;23;20209;-89
2021/10/12 06:46:53;;;;;;;2.27;0.60;;;11.90;99.90;;;;;;6240580;22;20204;-89
2021/10/12 06:49:19;;;;;;;0.40;0.40;;;12.00;99.90;;;;;;6189004;23;20263;-88
2021/10/12 06:51:45;;;;;;;2.30;0.47;;;12.00;99.90;;;;;;6189056;23;20268;-88
2021/10/12 06:54:10;;;;;;;0.20;0.20;;;12.00;99.90;;;;;;6190463;23;20189;-89
2021/10/12 06:56:36;;;;;;;1.67;0.13;;;11.90;99.90;;;;;;6214260;23;21006;-89
2021/10/12 06:59:02;;;;;;;1.57;1.47;;;11.90;99.90;;;;;;6189277;23;20239;-89
2021/10/12 07:01:28;;;;;;;0.23;0.20;;;11.90;99.90;;;;;;6188760;23;20215;-89
2021/10/12 07:03:53;;;;;;;1.30;0.63;;;11.70;99.90;;;;;;6188978;23;20789;-89
2021/10/12 07:06:19;;;;;;;0.13;0.13;;;11.60;99.90;;;;;;6189218;22;20162;-89
2021/10/12 07:08:45;;;;;;;0.10;0.10;;;11.60;99.90;;;;;;6189730;23;20674;-89
2021/10/12 07:11:10;;;;;;;4.63;0.57;;;11.60;99.90;;;;;;6188660;23;20197;-89
2021/10/12 07:13:36;;;;;;;0.20;0.20;;;11.60;99.90;;;;;;6188368;23;20210;-88
2021/10/12 07:16:02;;;;;;;4.10;0.70;;;11.70;99.90;;;;;;6188643;23;20190;-89
2021/10/12 07:18:28;;;;;;;0.20;0.20;;;11.70;99.90;;;;;;6238348;22;20165;-89
2021/10/12 07:20:54;;;;;;;2.50;0.40;;;11.50;99.90;;;;;;6239976;23;20158;-88
2021/10/12 07:23:20;;;;;;;2.03;0.53;;;11.50;99.90;;;;;;6188862;23;20197;-89
2021/10/12 07:25:48;;;;;;;0.27;0.20;;;11.60;99.90;;;;;;6188759;23;20725;-89
2021/10/12 07:28:15;;;;;;;3.37;0.60;;;11.60;99.90;;;;;;6238848;22;20189;-89
2021/10/12 07:30:41;;;;;;;0.63;0.63;;;11.70;99.90;;;;;;6238903;22;20193;-89
2021/10/12 07:33:07;;;;;;;0.87;0.23;;;11.70;99.90;;;;;;6214420;23;20512;-88
2021/10/12 07:35:33;;;;;;;0.40;0.27;;;11.80;99.90;;;;;;6188115;23;20193;-89
2021/10/12 07:38:00;;;;;;;3.40;0.47;;;11.90;99.90;;;;;;6188775;23;20193;-88
2021/10/12 07:40:26;;;;;;;12.03;0.50;;;12.00;99.90;;;;;;6238146;22;20677;-89
2021/10/12 07:42:52;;;;;;;2.23;0.87;;;12.10;99.90;;;;;;6188872;23;20201;-89
2021/10/12 07:45:17;;;;;;;1.50;1.27;;;12.10;99.90;;;;;;6238535;22;20160;-88
2021/10/12 07:47:43;;;;;;;0.77;0.47;;;12.20;99.90;;;;;;6213846;23;20251;-89
2021/10/12 07:50:09;;;;;;;4.23;0.80;;;12.30;99.90;;;;;;6188170;23;20255;-88
2021/10/12 07:52:37;;;;;;;1.40;0.30;;;12.40;99.90;;;;;;6213239;23;20197;-88
2021/10/12 07:57:32;;;;;;;0.50;0.23;;;12.50;99.90;;;;;;6238880;22;20217;-89
2021/10/12 07:59:57;;;;;;;2.67;0.57;;;12.60;99.90;;;;;;6214613;23;20184;-89
2021/10/12 08:02:23;;;;;;;7.20;0.50;;;12.70;99.90;;;;;;6213501;23;20585;-89
2021/10/12 08:04:49;;;;;;;2.30;0.30;;;12.80;99.90;;;;;;6213642;23;20201;-88
2021/10/12 08:07:15;;;;;;;0.97;0.30;;;12.90;99.90;;;;;;6188086;23;20193;-89
2021/10/12 08:09:41;;;;;;;2.63;0.30;;;13.20;99.90;;;;;;6212922;23;20272;-88
2021/10/12 08:12:07;;;;;;;3.47;0.50;;;13.60;99.90;;;;;;6189025;23;20168;-88
2021/10/12 08:14:38;;;;;;;3.70;0.50;;;14.80;99.90;;;;;;6238023;22;20211;-88
2021/10/12 08:17:04;;;;;;;1.63;0.30;;;15.40;99.90;;;;;;6214149;23;20661;-88
2021/10/12 08:19:30;;;;;;;8.97;0.80;;;15.40;99.90;;;;;;6212861;23;20571;-89
2021/10/12 08:21:56;;;;;;;1.43;0.63;;;15.10;99.90;;;;;;6213269;23;20202;-88
2021/10/12 08:24:22;;;;;;;0.20;0.20;;;14.30;99.90;;;;;;6213156;22;20249;-89
2021/10/12 08:26:49;;;;;;;1.60;0.83;;;14.20;99.90;;;;;;6213024;23;20394;-88
2021/10/12 08:29:15;;;;;;;0.57;0.57;;;14.00;99.90;;;;;;6237808;22;20205;-88
2021/10/12 08:31:41;;;;;;;0.67;0.67;;;13.90;99.90;;;;;;6212428;23;20201;-88
2021/10/12 08:34:07;;;;;;;1.30;0.60;;;13.90;99.90;;;;;;6187401;23;20779;-88
2021/10/12 08:36:32;;;;;;;0.73;0.37;;;13.70;99.90;;;;;;6187495;22;20189;-88
2021/10/12 08:38:58;;;;;;;0.07;0.07;;;13.70;99.90;;;;;;6212721;23;20172;-88
2021/10/12 08:41:30;;;;;;;2.23;0.60;;;13.60;99.90;;;;;;6212335;23;20197;-88
2021/10/12 08:43:56;;;;;;;2.80;0.33;;;13.50;99.90;;;;;;6237247;22;20267;-88
2021/10/12 08:46:26;;;;;;;1.80;0.60;;;13.50;99.90;;;;;;6187938;23;20197;-88
2021/10/12 08:48:54;;;;;;;0.30;0.20;;;13.30;99.90;;;;;;6213196;23;20185;-89
2021/10/12 08:51:20;;;;;;;2.43;0.70;;;13.40;99.90;;;;;;6212700;22;20157;-88
2021/10/12 08:53:46;;;;;;;0.40;0.20;;;13.50;99.90;;;;;;6238217;23;20253;-88
2021/10/12 08:56:12;;;;;;;0.40;0.20;;;13.30;99.90;;;;;;6187562;23;20197;-88
2021/10/12 08:58:38;;;;;;;0.20;0.20;;;13.40;99.90;;;;;;6236626;22;20216;-88
2021/10/12 09:01:12;;;;;;;1.37;1.27;;;13.40;99.90;;;;;;6187117;23;20204;-88
2021/10/12 09:06:48;;;;;;;0.70;0.40;;;13.20;99.90;;;;;;6238767;22;20184;-88
2021/10/12 09:09:16;;;;;;;0.20;0.20;;;13.50;99.90;;;;;;6236818;22;20161;-88
2021/10/12 09:11:46;;;;;;;3.60;0.80;;;13.50;99.90;;;;;;6189030;23;20227;-88
2021/10/12 09:14:12;;;;;;;1.33;0.40;;;13.60;99.90;;;;;;6212709;23;20228;-88
2021/10/12 09:16:41;;;;;;;0.10;0.10;;;13.70;99.90;;;;;;6187126;23;20634;-88
2021/10/12 09:19:12;;;;;;;2.10;1.07;;;13.80;99.90;;;;;;6212424;23;20186;-87
2021/10/12 09:21:46;;;;;;;2.20;0.47;;;13.80;99.90;;;;;;6212150;23;20192;-88
2021/10/12 09:24:21;;;;;;;2.80;0.87;;;13.50;99.90;;;;;;6238950;22;20160;-87
2021/10/12 09:27:03;;;;;;;3.67;0.90;;;13.50;99.90;;;;;;6238018;23;20489;-87
2021/10/12 09:32:03;;;;;;;0.97;0.30;;;13.60;99.90;;;;;;6238430;22;20276;-88
2021/10/12 09:34:30;;;;;;;0.13;0.13;;;13.60;99.90;;;;;;6212134;23;20278;-88
2021/10/12 09:36:57;;;;;;;0.20;0.20;;;13.60;99.90;;;;;;6212420;23;20201;-88
2021/10/12 09:39:32;;;;;;;0.20;0.20;;;13.30;99.90;;;;;;6237208;22;20165;-88
2021/10/12 09:42:01;;;;;;;0.20;0.20;;;13.30;99.90;;;;;;6239446;22;20148;-88
2021/10/12 09:44:28;;;;;;;4.77;0.40;;;13.40;99.90;;;;;;6237135;22;21180;-88
2021/10/12 09:47:15;;;;;;;1.80;0.50;;;13.50;99.90;;;;;;6212313;23;20727;-87
2021/10/12 09:49:41;;;;;;;0.17;0.17;;;13.50;99.90;;;;;;6237362;22;20723;-89
2021/10/12 09:52:15;;;;;;;2.43;0.57;;;13.60;99.90;;;;;;6211814;23;20193;-89
2021/10/12 09:54:48;;;;;;;3.20;0.50;;;13.70;99.90;;;;;;6237244;22;20211;-88
2021/10/12 09:57:18;;;;;;;0.30;0.30;;;13.90;99.90;;;;;;6237499;22;20490;-88
2021/10/12 09:59:45;;;;;;;2.63;0.77;;;14.00;99.90;;;;;;6213482;23;20647;-88
2021/10/12 10:02:20;;;;;;;0.50;0.23;;;14.10;99.90;;;;;;6237365;22;20199;-89
2021/10/12 10:04:46;;;;;;;0.30;0.30;;;13.90;99.90;;;;;;6236852;22;20543;-88
2021/10/12 10:07:29;;;;;;;3.30;0.57;;;13.90;99.90;;;;;;6212178;23;20192;-88
2021/10/12 10:10:04;;;;;;;4.30;0.40;;;13.90;99.90;;;;;;6238320;22;20201;-88
2021/10/12 10:12:34;;;;;;;4.23;0.33;;;14.00;99.90;;;;;;6212440;22;20165;-87
2021/10/12 10:15:00;;;;;;;3.07;0.30;;;14.40;99.90;;;;;;6239480;23;20177;-88
2021/10/12 10:17:28;;;;;;;2.73;0.43;;;15.00;99.90;;;;;;6213920;23;20201;-88
2021/10/12 10:19:55;;;;;;;0.20;0.20;;;15.50;99.90;;;;;;6214022;23;20704;-88
2021/10/12 10:22:34;;;;;;;1.00;0.33;;;15.40;99.90;;;;;;6238953;22;20205;-88
2021/10/12 10:25:21;;;;;;;1.50;0.30;;;14.90;99.90;;;;;;6239094;22;20588;-88
2021/10/12 10:27:46;;;;;;;2.47;0.30;;;15.10;99.90;;;;;;6239647;22;20252;-88
2021/10/12 10:30:31;;;;;;;1.03;0.40;;;15.30;99.90;;;;;;6239052;22;20165;-88
2021/10/12 10:33:04;;;;;;;4.70;0.70;;;15.20;99.90;;;;;;6239119;23;20149;-89
2021/10/12 10:35:46;;;;;;;1.63;1.53;;;14.80;99.90;;;;;;6238475;22;20272;-88
2021/10/12 10:38:20;;;;;;;0.30;0.30;;;14.50;99.90;;;;;;6238439;22;20635;-88
2021/10/12 10:41:11;;;;;;;0.30;0.30;;;14.20;99.90;;;;;;6238508;22;20205;-88
2021/10/12 10:43:49;;;;;;;0.20;0.20;;;14.20;99.90;;;;;;6237694;22;20217;-88
2021/10/12 10:46:34;;;;;;;0.93;0.60;;;14.40;99.90;;;;;;6238522;22;20228;-88
2021/10/12 10:49:11;;;;;;;0.73;0.47;;;14.20;99.90;;;;;;6239504;22;20200;-89
2021/10/12 10:51:56;;;;;;;1.47;1.37;;;14.30;99.90;;;;;;6238062;22;20264;-88
2021/10/12 10:54:41;;;;;;;0.70;0.40;;;14.40;99.90;;;;;;6238682;22;20189;-87
2021/10/12 10:57:25;;;;;;;0.60;0.43;;;14.30;99.90;;;;;;6239038;23;20173;-89
2021/10/12 11:00:16;;;;;;;0.10;0.10;;;14.00;99.90;;;;;;6238806;23;20173;-89
2021/10/12 11:02:43;;;;;;;0.43;0.40;;;13.60;99.90;;;;;;6239848;23;20193;-91
2021/10/12 11:05:09;;;;;;;1.07;0.60;;;13.50;99.90;;;;;;6239260;22;20242;-90
2021/10/12 11:07:35;;;;;;;2.20;0.80;;;14.00;99.90;;;;;;6191147;23;20877;-90
2021/10/12 11:10:00;;;;;;;0.20;0.20;;;14.70;99.90;;;;;;6219837;23;20193;-92
2021/10/12 11:12:29;;;;;;;2.17;0.60;;;14.60;99.90;;;;;;6219041;22;20168;-91
2021/10/12 11:15:06;;;;;;;1.23;1.13;;;14.50;99.90;;;;;;6243632;23;20626;-91
2021/10/12 11:17:32;;;;;;;1.23;0.47;;;14.10;99.90;;;;;;6241459;22;20200;-92
2021/10/12 11:20:07;;;;;;;1.13;0.50;;;14.60;99.90;;;;;;6241019;22;20288;-89
2021/10/12 11:22:40;;;;;;;4.10;0.73;;;14.50;99.90;;;;;;6242304;22;20212;-90
2021/10/12 11:25:06;;;;;;;8.90;0.73;;;14.60;99.90;;;;;;6213835;23;20193;-90
2021/10/12 11:27:45;;;;;;;2.90;0.60;;;14.80;99.90;;;;;;6241441;22;20201;-92
2021/10/12 11:30:14;;;;;;;0.90;0.57;;;14.80;99.90;;;;;;6213848;23;20158;-90
2021/10/12 11:32:39;;;;;;;1.33;0.77;;;14.80;99.90;;;;;;6213121;23;20230;-88
2021/10/12 11:35:06;;;;;;;0.97;0.83;;;14.90;99.90;;;;;;6212571;23;20299;-89
2021/10/12 11:37:32;;;;;;;0.70;0.60;;;15.10;99.90;;;;;;6237899;22;20197;-89
2021/10/12 11:40:18;;;;;;;0.50;0.30;;;15.00;99.90;;;;;;6208745;23;20200;-88
2021/10/12 11:42:45;;;;;;;0.30;0.30;;;15.20;99.90;;;;;;6211088;22;20224;-88
2021/10/12 11:45:11;;;;;;;2.03;0.30;;;15.30;99.90;;;;;;6238633;23;20169;-88
2021/10/12 11:47:37;;;;;;;4.73;0.90;;;15.10;99.90;;;;;;6187102;23;20293;-89
2021/10/12 11:50:15;;;;;;;0.93;0.60;;;15.10;99.90;;;;;;6212925;23;20197;-89
2021/10/12 11:52:45;;;;;;;1.23;0.50;;;15.30;99.90;;;;;;6239057;22;20216;-90
2021/10/12 11:55:11;;;;;;;1.50;0.60;;;15.30;99.90;;;;;;6213327;23;20204;-91
2021/10/12 11:57:40;;;;;;;1.17;0.47;;;15.30;99.90;;;;;;6236847;22;20190;-93
2021/10/12 12:00:07;;;;;;;0.30;0.30;;;15.20;99.90;;;;;;6189389;23;20509;-90
2021/10/12 12:02:32;;;;;;;3.03;0.50;;;15.30;99.90;;;;;;6208894;23;20197;-89
2021/10/12 12:04:59;;;;;;;1.97;1.10;;;15.20;99.90;;;;;;6232623;22;20216;-90
2021/10/12 12:07:30;;;;;;;6.77;0.63;;;15.30;99.90;;;;;;6208576;23;20196;-89
2021/10/12 12:09:57;;;;;;;1.57;0.20;;;15.30;99.90;;;;;;6236591;22;20263;-89
2021/10/12 12:12:23;;;;;;;0.30;0.20;;;15.10;99.90;;;;;;6238101;22;20675;-91
2021/10/12 12:14:50;;;;;;;1.43;1.33;;;15.00;99.90;;;;;;6212847;23;20689;-91
2021/10/12 12:17:22;;;;;;;2.20;0.30;;;14.80;99.90;;;;;;6237189;22;20247;-91
2021/10/12 12:19:48;;;;;;;0.30;0.30;;;14.90;99.90;;;;;;6236787;22;20276;-89
2021/10/12 12:22:22;;;;;;;0.87;0.30;;;14.80;99.90;;;;;;6211526;23;20224;-91
2021/10/12 12:25:11;;;;;;;0.93;0.57;;;14.80;99.90;;;;;;6237219;22;20204;-90
2021/10/12 12:27:58;;;;;;;0.43;0.43;;;14.80;99.90;;;;;;6235910;22;20197;-90
2021/10/12 12:30:36;;;;;;;4.37;0.77;;;15.00;99.90;;;;;;6237057;22;20142;-90
2021/10/12 12:33:02;;;;;;;6.43;1.33;;;14.50;99.90;;;;;;6237025;23;20232;-91
2021/10/12 12:35:36;;;;;;;3.37;0.57;;;13.80;99.90;;;;;;6211377;23;20252;-91
2021/10/12 12:38:04;;;;;;;0.43;0.43;;;13.60;99.90;;;;;;6236417;22;20519;-90
2021/10/12 12:40:33;;;;;;;0.50;0.40;;;13.60;99.90;;;;;;6210991;23;20216;-90
2021/10/12 12:43:19;;;;;;;0.40;0.40;;;13.50;99.90;;;;;;6236014;22;20209;-89
2021/10/12 12:45:46;;;;;;;0.77;0.63;;;13.50;99.90;;;;;;6236700;22;20197;-90
2021/10/12 12:48:22;;;;;;;0.27;0.27;;;13.50;99.90;;;;;;6236935;22;20484;-89
2021/10/12 12:51:00;;;;;;;11.10;0.60;;;13.70;99.90;;;;;;6213582;23;20152;-90
2021/10/12 12:53:45;;;;;;;5.67;0.80;;;13.90;99.90;;;;;;6236453;22;20196;-90
2021/10/12 12:56:16;;;;;;;0.20;0.20;;;14.10;99.90;;;;;;6211065;23;20876;-90
2021/10/12 12:58:43;;;;;;;0.20;0.20;;;14.20;99.90;;;;;;6211872;23;20193;-91
2021/10/12 13:01:19;;;;;;;0.50;0.40;;;14.30;99.90;;;;;;6211702;23;20199;-91
2021/10/12 13:03:52;;;;;;;0.40;0.40;;;14.20;99.90;;;;;;6211824;23;20724;-90
2021/10/12 13:06:18;;;;;;;0.20;0.20;;;14.30;99.90;;;;;;6212557;22;20188;-91